sensor_id;sensor_type;location;lat;lon;timestamp;P1;P2;P0
50321;PMS5003;36227;53.366;-1.426;2023-05-14T00:00:37;71;63;
50321;PMS5003;36227;53.366;-1.426;2023-05-14T00:03:03;69;63;
50321;PMS5003;36227;53.366;-1.426;2023-05-14T00:05:28;66;58;
50321;PMS5003;36227;53.366;-1.426;2023-05-14T00:07:53;63;57;
50321;PMS5003;36227;53.366;-1.426;2023-05-14T00:10:19;78;68;
50321;PMS5003;36227;53.366;-1.426;2023-05-14T00:12:44;77;68;
50321;PMS5003;36227;53.366;-1.426;2023-05-14T00:15:10;76;67;
50321;PMS5003;36227;53.366;-1.426;2023-05-14T00:17:35;76;70;
50321;PMS5003;36227;53.366;-1.426;2023-05-14T00:20:01;77;68;
50321;PMS5003;36227;53.366;-1.426;2023-05-14T00:22:26;74;69;
50321;PMS5003;36227;53.366;-1.426;2023-05-14T00:24:51;85;72;
50321;PMS5003;36227;53.366;-1.426;2023-05-14T00:27:16;88;77;
50321;PMS5003;36227;53.366;-1.426;2023-05-14T00:29:42;80;74;
50321;PMS5003;36227;53.366;-1.426;2023-05-14T00:32:07;87;79;
50321;PMS5003;36227;53.366;-1.426;2023-05-14T00:34:33;74;69;
50321;PMS5003;36227;53.366;-1.426;2023-05-14T00:36:58;82;75;
50321;PMS5003;36227;53.366;-1.426;2023-05-14T00:39:24;75;74;
50321;PMS5003;36227;53.366;-1.426;2023-05-14T00:41:50;87;72;
50321;PMS5003;36227;53.366;-1.426;2023-05-14T00:44:15;70;66;
50321;PMS5003;36227;53.366;-1.426;2023-05-14T00:46:41;78;69;
50321;PMS5003;36227;53.366;-1.426;2023-05-14T00:49:06;88;81;
50321;PMS5003;36227;53.366;-1.426;2023-05-14T00:51:32;81;70;
50321;PMS5003;36227;53.366;-1.426;2023-05-14T00:53:57;74;69;
50321;PMS5003;36227;53.366;-1.426;2023-05-14T00:56:23;77;72;
50321;PMS5003;36227;53.366;-1.426;2023-05-14T00:58:48;81;73;
50321;PMS5003;36227;53.366;-1.426;2023-05-14T01:01:13;76;68;
50321;PMS5003;36227;53.366;-1.426;2023-05-14T01:03:39;78;70;
50321;PMS5003;36227;53.366;-1.426;2023-05-14T01:06:06;76;71;
50321;PMS5003;36227;53.366;-1.426;2023-05-14T01:08:31;69;62;
50321;PMS5003;36227;53.366;-1.426;2023-05-14T01:10:56;68;63;
50321;PMS5003;36227;53.366;-1.426;2023-05-14T01:13:23;68;62;
50321;PMS5003;36227;53.366;-1.426;2023-05-14T01:15:46;69;66;
50321;PMS5003;36227;53.366;-1.426;2023-05-14T01:18:12;69;62;
50321;PMS5003;36227;53.366;-1.426;2023-05-14T01:20:36;73;68;
50321;PMS5003;36227;53.366;-1.426;2023-05-14T01:23:02;70;63;
50321;PMS5003;36227;53.366;-1.426;2023-05-14T01:25:29;68;62;
50321;PMS5003;36227;53.366;-1.426;2023-05-14T01:27:56;71;61;
50321;PMS5003;36227;53.366;-1.426;2023-05-14T01:30:20;77;68;
50321;PMS5003;36227;53.366;-1.426;2023-05-14T01:32:46;71;66;
50321;PMS5003;36227;53.366;-1.426;2023-05-14T01:35:10;66;59;
50321;PMS5003;36227;53.366;-1.426;2023-05-14T01:37:36;65;58;
50321;PMS5003;36227;53.366;-1.426;2023-05-14T01:40:01;69;62;
50321;PMS5003;36227;53.366;-1.426;2023-05-14T01:42:26;58;54;
50321;PMS5003;36227;53.366;-1.426;2023-05-14T01:44:51;69;60;
50321;PMS5003;36227;53.366;-1.426;2023-05-14T01:47:17;62;58;
50321;PMS5003;36227;53.366;-1.426;2023-05-14T01:49:42;67;59;
50321;PMS5003;36227;53.366;-1.426;2023-05-14T01:52:07;62;59;
50321;PMS5003;36227;53.366;-1.426;2023-05-14T01:54:33;62;56;
50321;PMS5003;36227;53.366;-1.426;2023-05-14T01:56:58;54;51;
50321;PMS5003;36227;53.366;-1.426;2023-05-14T01:59:24;61;57;
50321;PMS5003;36227;53.366;-1.426;2023-05-14T02:01:49;56;51;
50321;PMS5003;36227;53.366;-1.426;2023-05-14T02:04:14;56;53;
50321;PMS5003;36227;53.366;-1.426;2023-05-14T02:06:39;60;55;
50321;PMS5003;36227;53.366;-1.426;2023-05-14T02:09:04;61;53;
50321;PMS5003;36227;53.366;-1.426;2023-05-14T02:11:30;56;52;
50321;PMS5003;36227;53.366;-1.426;2023-05-14T02:13:56;57;50;
50321;PMS5003;36227;53.366;-1.426;2023-05-14T02:16:21;64;54;
50321;PMS5003;36227;53.366;-1.426;2023-05-14T02:18:47;67;60;
50321;PMS5003;36227;53.366;-1.426;2023-05-14T02:21:13;51;47;
50321;PMS5003;36227;53.366;-1.426;2023-05-14T02:23:38;61;57;
50321;PMS5003;36227;53.366;-1.426;2023-05-14T02:26:03;55;50;
50321;PMS5003;36227;53.366;-1.426;2023-05-14T02:28:28;59;54;
50321;PMS5003;36227;53.366;-1.426;2023-05-14T02:30:57;52;49;
50321;PMS5003;36227;53.366;-1.426;2023-05-14T02:33:20;51;46;
50321;PMS5003;36227;53.366;-1.426;2023-05-14T02:35:46;50;46;
50321;PMS5003;36227;53.366;-1.426;2023-05-14T02:38:11;52;46;
50321;PMS5003;36227;53.366;-1.426;2023-05-14T02:40:36;54;48;
50321;PMS5003;36227;53.366;-1.426;2023-05-14T02:43:01;59;50;
50321;PMS5003;36227;53.366;-1.426;2023-05-14T02:45:26;61;49;
50321;PMS5003;36227;53.366;-1.426;2023-05-14T02:47:52;59;57;
50321;PMS5003;36227;53.366;-1.426;2023-05-14T02:50:17;50;45;
50321;PMS5003;36227;53.366;-1.426;2023-05-14T02:52:43;50;49;
50321;PMS5003;36227;53.366;-1.426;2023-05-14T02:55:08;53;48;
50321;PMS5003;36227;53.366;-1.426;2023-05-14T02:57:34;61;54;
50321;PMS5003;36227;53.366;-1.426;2023-05-14T02:59:59;54;53;
50321;PMS5003;36227;53.366;-1.426;2023-05-14T03:02:25;59;52;
50321;PMS5003;36227;53.366;-1.426;2023-05-14T03:04:51;61;55;
50321;PMS5003;36227;53.366;-1.426;2023-05-14T03:07:16;58;54;
50321;PMS5003;36227;53.366;-1.426;2023-05-14T03:09:42;54;50;
50321;PMS5003;36227;53.366;-1.426;2023-05-14T03:12:07;61;54;
50321;PMS5003;36227;53.366;-1.426;2023-05-14T03:14:32;59;52;
50321;PMS5003;36227;53.366;-1.426;2023-05-14T03:16:58;59;54;
50321;PMS5003;36227;53.366;-1.426;2023-05-14T03:19:24;68;60;
50321;PMS5003;36227;53.366;-1.426;2023-05-14T03:21:49;57;51;
50321;PMS5003;36227;53.366;-1.426;2023-05-14T03:24:14;58;52;
50321;PMS5003;36227;53.366;-1.426;2023-05-14T03:26:40;57;52;
50321;PMS5003;36227;53.366;-1.426;2023-05-14T03:29:05;54;50;
50321;PMS5003;36227;53.366;-1.426;2023-05-14T03:31:31;52;47;
50321;PMS5003;36227;53.366;-1.426;2023-05-14T03:33:56;60;57;
50321;PMS5003;36227;53.366;-1.426;2023-05-14T03:36:22;55;46;
50321;PMS5003;36227;53.366;-1.426;2023-05-14T03:38:48;61;51;
50321;PMS5003;36227;53.366;-1.426;2023-05-14T03:41:13;51;47;
50321;PMS5003;36227;53.366;-1.426;2023-05-14T03:43:38;57;50;
50321;PMS5003;36227;53.366;-1.426;2023-05-14T03:46:04;48;47;
50321;PMS5003;36227;53.366;-1.426;2023-05-14T03:48:30;52;51;
50321;PMS5003;36227;53.366;-1.426;2023-05-14T03:50:55;54;51;
50321;PMS5003;36227;53.366;-1.426;2023-05-14T03:53:21;52;50;
50321;PMS5003;36227;53.366;-1.426;2023-05-14T03:55:46;49;48;
50321;PMS5003;36227;53.366;-1.426;2023-05-14T03:58:12;53;46;
50321;PMS5003;36227;53.366;-1.426;2023-05-14T04:00:37;47;46;
50321;PMS5003;36227;53.366;-1.426;2023-05-14T04:03:02;52;45;
50321;PMS5003;36227;53.366;-1.426;2023-05-14T04:05:28;44;43;
50321;PMS5003;36227;53.366;-1.426;2023-05-14T04:07:53;51;48;
50321;PMS5003;36227;53.366;-1.426;2023-05-14T04:10:19;45;42;
50321;PMS5003;36227;53.366;-1.426;2023-05-14T04:12:44;46;41;
50321;PMS5003;36227;53.366;-1.426;2023-05-14T04:15:10;42;39;
50321;PMS5003;36227;53.366;-1.426;2023-05-14T04:17:35;46;42;
50321;PMS5003;36227;53.366;-1.426;2023-05-14T04:20:01;47;43;
50321;PMS5003;36227;53.366;-1.426;2023-05-14T04:22:27;49;44;
50321;PMS5003;36227;53.366;-1.426;2023-05-14T04:24:53;51;46;
50321;PMS5003;36227;53.366;-1.426;2023-05-14T04:27:18;49;44;
50321;PMS5003;36227;53.366;-1.426;2023-05-14T04:29:43;56;49;
50321;PMS5003;36227;53.366;-1.426;2023-05-14T04:32:09;45;42;
50321;PMS5003;36227;53.366;-1.426;2023-05-14T04:34:34;49;44;
50321;PMS5003;36227;53.366;-1.426;2023-05-14T04:37:00;55;50;
50321;PMS5003;36227;53.366;-1.426;2023-05-14T04:39:25;52;51;
50321;PMS5003;36227;53.366;-1.426;2023-05-14T04:41:50;51;49;
50321;PMS5003;36227;53.366;-1.426;2023-05-14T04:44:15;53;49;
50321;PMS5003;36227;53.366;-1.426;2023-05-14T04:46:41;44;41;
50321;PMS5003;36227;53.366;-1.426;2023-05-14T04:49:07;54;44;
50321;PMS5003;36227;53.366;-1.426;2023-05-14T04:51:32;51;46;
50321;PMS5003;36227;53.366;-1.426;2023-05-14T04:53:58;55;50;
50321;PMS5003;36227;53.366;-1.426;2023-05-14T04:56:23;50;45;
50321;PMS5003;36227;53.366;-1.426;2023-05-14T04:58:49;49;45;
50321;PMS5003;36227;53.366;-1.426;2023-05-14T05:01:14;45;43;
50321;PMS5003;36227;53.366;-1.426;2023-05-14T05:03:40;45;43;
50321;PMS5003;36227;53.366;-1.426;2023-05-14T05:06:06;53;47;
50321;PMS5003;36227;53.366;-1.426;2023-05-14T05:08:31;48;42;
50321;PMS5003;36227;53.366;-1.426;2023-05-14T05:10:55;52;51;
50321;PMS5003;36227;53.366;-1.426;2023-05-14T05:13:21;47;46;
50321;PMS5003;36227;53.366;-1.426;2023-05-14T05:15:47;48;43;
50321;PMS5003;36227;53.366;-1.426;2023-05-14T05:18:13;53;47;
50321;PMS5003;36227;53.366;-1.426;2023-05-14T05:20:38;45;43;
50321;PMS5003;36227;53.366;-1.426;2023-05-14T05:23:03;48;43;
50321;PMS5003;36227;53.366;-1.426;2023-05-14T05:25:29;49;46;
50321;PMS5003;36227;53.366;-1.426;2023-05-14T05:27:54;50;46;
50321;PMS5003;36227;53.366;-1.426;2023-05-14T05:30:20;45;44;
50321;PMS5003;36227;53.366;-1.426;2023-05-14T05:32:45;57;48;
50321;PMS5003;36227;53.366;-1.426;2023-05-14T05:35:11;53;48;
50321;PMS5003;36227;53.366;-1.426;2023-05-14T05:37:36;50;46;
50321;PMS5003;36227;53.366;-1.426;2023-05-14T05:40:02;50;46;
50321;PMS5003;36227;53.366;-1.426;2023-05-14T05:42:27;47;42;
50321;PMS5003;36227;53.366;-1.426;2023-05-14T05:44:53;49;42;
50321;PMS5003;36227;53.366;-1.426;2023-05-14T05:47:18;50;48;
50321;PMS5003;36227;53.366;-1.426;2023-05-14T05:49:43;47;44;
50321;PMS5003;36227;53.366;-1.426;2023-05-14T05:52:08;51;46;
50321;PMS5003;36227;53.366;-1.426;2023-05-14T05:54:33;50;43;
50321;PMS5003;36227;53.366;-1.426;2023-05-14T05:56:59;47;42;
50321;PMS5003;36227;53.366;-1.426;2023-05-14T05:59:24;46;43;
50321;PMS5003;36227;53.366;-1.426;2023-05-14T06:01:49;52;47;
50321;PMS5003;36227;53.366;-1.426;2023-05-14T06:04:15;50;46;
50321;PMS5003;36227;53.366;-1.426;2023-05-14T06:06:40;51;47;
50321;PMS5003;36227;53.366;-1.426;2023-05-14T06:09:05;49;44;
50321;PMS5003;36227;53.366;-1.426;2023-05-14T06:11:31;48;44;
50321;PMS5003;36227;53.366;-1.426;2023-05-14T06:13:56;55;53;
50321;PMS5003;36227;53.366;-1.426;2023-05-14T06:16:21;52;51;
50321;PMS5003;36227;53.366;-1.426;2023-05-14T06:18:46;50;45;
50321;PMS5003;36227;53.366;-1.426;2023-05-14T06:21:12;46;42;
50321;PMS5003;36227;53.366;-1.426;2023-05-14T06:23:37;48;45;
50321;PMS5003;36227;53.366;-1.426;2023-05-14T06:26:02;48;44;
50321;PMS5003;36227;53.366;-1.426;2023-05-14T06:28:28;46;41;
50321;PMS5003;36227;53.366;-1.426;2023-05-14T06:30:53;50;47;
50321;PMS5003;36227;53.366;-1.426;2023-05-14T06:33:19;48;43;
50321;PMS5003;36227;53.366;-1.426;2023-05-14T06:35:44;47;41;
50321;PMS5003;36227;53.366;-1.426;2023-05-14T06:38:09;39;38;
50321;PMS5003;36227;53.366;-1.426;2023-05-14T06:40:35;52;45;
50321;PMS5003;36227;53.366;-1.426;2023-05-14T06:43:01;50;44;
50321;PMS5003;36227;53.366;-1.426;2023-05-14T06:45:26;44;42;
50321;PMS5003;36227;53.366;-1.426;2023-05-14T06:47:51;55;47;
50321;PMS5003;36227;53.366;-1.426;2023-05-14T06:50:17;49;48;
50321;PMS5003;36227;53.366;-1.426;2023-05-14T06:52:42;56;49;
50321;PMS5003;36227;53.366;-1.426;2023-05-14T06:55:08;55;50;
50321;PMS5003;36227;53.366;-1.426;2023-05-14T06:57:34;49;41;
50321;PMS5003;36227;53.366;-1.426;2023-05-14T06:59:59;50;46;
50321;PMS5003;36227;53.366;-1.426;2023-05-14T07:02:24;49;45;
50321;PMS5003;36227;53.366;-1.426;2023-05-14T07:04:50;51;47;
50321;PMS5003;36227;53.366;-1.426;2023-05-14T07:07:15;52;47;
50321;PMS5003;36227;53.366;-1.426;2023-05-14T07:09:40;53;43;
50321;PMS5003;36227;53.366;-1.426;2023-05-14T07:12:06;52;46;
50321;PMS5003;36227;53.366;-1.426;2023-05-14T07:14:31;57;47;
50321;PMS5003;36227;53.366;-1.426;2023-05-14T07:16:56;48;44;
50321;PMS5003;36227;53.366;-1.426;2023-05-14T07:19:22;50;46;
50321;PMS5003;36227;53.366;-1.426;2023-05-14T07:21:48;56;50;
50321;PMS5003;36227;53.366;-1.426;2023-05-14T07:24:13;47;44;
50321;PMS5003;36227;53.366;-1.426;2023-05-14T07:26:38;49;47;
50321;PMS5003;36227;53.366;-1.426;2023-05-14T07:29:04;62;57;
50321;PMS5003;36227;53.366;-1.426;2023-05-14T07:31:29;48;45;
50321;PMS5003;36227;53.366;-1.426;2023-05-14T07:33:55;58;50;
50321;PMS5003;36227;53.366;-1.426;2023-05-14T07:36:20;53;49;
50321;PMS5003;36227;53.366;-1.426;2023-05-14T07:38:45;70;64;
50321;PMS5003;36227;53.366;-1.426;2023-05-14T07:41:11;60;55;
50321;PMS5003;36227;53.366;-1.426;2023-05-14T07:43:36;69;64;
50321;PMS5003;36227;53.366;-1.426;2023-05-14T07:46:02;64;55;
50321;PMS5003;36227;53.366;-1.426;2023-05-14T07:48:27;56;53;
50321;PMS5003;36227;53.366;-1.426;2023-05-14T07:50:53;63;60;
50321;PMS5003;36227;53.366;-1.426;2023-05-14T07:53:18;59;54;
50321;PMS5003;36227;53.366;-1.426;2023-05-14T07:55:44;58;52;
50321;PMS5003;36227;53.366;-1.426;2023-05-14T07:58:09;68;61;
50321;PMS5003;36227;53.366;-1.426;2023-05-14T08:00:35;57;55;
50321;PMS5003;36227;53.366;-1.426;2023-05-14T08:03:01;55;52;
50321;PMS5003;36227;53.366;-1.426;2023-05-14T08:05:26;59;52;
50321;PMS5003;36227;53.366;-1.426;2023-05-14T08:07:51;60;57;
50321;PMS5003;36227;53.366;-1.426;2023-05-14T08:10:17;50;47;
50321;PMS5003;36227;53.366;-1.426;2023-05-14T08:12:43;51;47;
50321;PMS5003;36227;53.366;-1.426;2023-05-14T08:15:08;58;49;
50321;PMS5003;36227;53.366;-1.426;2023-05-14T08:17:33;54;49;
50321;PMS5003;36227;53.366;-1.426;2023-05-14T08:19:59;60;52;
50321;PMS5003;36227;53.366;-1.426;2023-05-14T08:22:24;58;51;
50321;PMS5003;36227;53.366;-1.426;2023-05-14T08:24:50;57;51;
50321;PMS5003;36227;53.366;-1.426;2023-05-14T08:27:15;55;50;
50321;PMS5003;36227;53.366;-1.426;2023-05-14T08:29:40;55;50;
50321;PMS5003;36227;53.366;-1.426;2023-05-14T08:32:06;56;51;
50321;PMS5003;36227;53.366;-1.426;2023-05-14T08:34:31;56;51;
50321;PMS5003;36227;53.366;-1.426;2023-05-14T08:36:56;50;46;
50321;PMS5003;36227;53.366;-1.426;2023-05-14T08:39:22;47;47;
50321;PMS5003;36227;53.366;-1.426;2023-05-14T08:41:48;48;47;
50321;PMS5003;36227;53.366;-1.426;2023-05-14T08:44:13;54;51;
50321;PMS5003;36227;53.366;-1.426;2023-05-14T08:46:39;65;56;
50321;PMS5003;36227;53.366;-1.426;2023-05-14T08:49:07;51;46;
50321;PMS5003;36227;53.366;-1.426;2023-05-14T08:51:29;55;49;
50321;PMS5003;36227;53.366;-1.426;2023-05-14T08:53:55;55;50;
50321;PMS5003;36227;53.366;-1.426;2023-05-14T08:56:20;52;51;
50321;PMS5003;36227;53.366;-1.426;2023-05-14T08:58:45;55;49;
50321;PMS5003;36227;53.366;-1.426;2023-05-14T09:01:11;54;49;
50321;PMS5003;36227;53.366;-1.426;2023-05-14T09:03:36;53;49;
50321;PMS5003;36227;53.366;-1.426;2023-05-14T09:06:02;52;50;
50321;PMS5003;36227;53.366;-1.426;2023-05-14T09:08:27;49;43;
50321;PMS5003;36227;53.366;-1.426;2023-05-14T09:10:53;44;43;
50321;PMS5003;36227;53.366;-1.426;2023-05-14T09:13:19;54;48;
50321;PMS5003;36227;53.366;-1.426;2023-05-14T09:15:45;58;54;
50321;PMS5003;36227;53.366;-1.426;2023-05-14T09:18:10;43;41;
50321;PMS5003;36227;53.366;-1.426;2023-05-14T09:20:36;51;45;
50321;PMS5003;36227;53.366;-1.426;2023-05-14T09:23:01;50;47;
50321;PMS5003;36227;53.366;-1.426;2023-05-14T09:25:26;48;45;
50321;PMS5003;36227;53.366;-1.426;2023-05-14T09:27:52;46;44;
50321;PMS5003;36227;53.366;-1.426;2023-05-14T09:30:17;50;46;
50321;PMS5003;36227;53.366;-1.426;2023-05-14T09:32:43;46;45;
50321;PMS5003;36227;53.366;-1.426;2023-05-14T09:35:10;47;41;
50321;PMS5003;36227;53.366;-1.426;2023-05-14T09:37:35;46;43;
50321;PMS5003;36227;53.366;-1.426;2023-05-14T09:40:04;43;40;
50321;PMS5003;36227;53.366;-1.426;2023-05-14T09:42:25;48;41;
50321;PMS5003;36227;53.366;-1.426;2023-05-14T09:44:52;44;43;
50321;PMS5003;36227;53.366;-1.426;2023-05-14T09:47:15;43;42;
50321;PMS5003;36227;53.366;-1.426;2023-05-14T09:49:41;39;36;
50321;PMS5003;36227;53.366;-1.426;2023-05-14T09:52:07;47;43;
50321;PMS5003;36227;53.366;-1.426;2023-05-14T09:54:32;47;45;
50321;PMS5003;36227;53.366;-1.426;2023-05-14T09:56:57;48;47;
50321;PMS5003;36227;53.366;-1.426;2023-05-14T09:59:22;47;46;
50321;PMS5003;36227;53.366;-1.426;2023-05-14T10:01:47;45;41;
50321;PMS5003;36227;53.366;-1.426;2023-05-14T10:04:13;40;38;
50321;PMS5003;36227;53.366;-1.426;2023-05-14T10:06:39;38;38;
50321;PMS5003;36227;53.366;-1.426;2023-05-14T10:09:07;40;36;
50321;PMS5003;36227;53.366;-1.426;2023-05-14T10:11:31;37;35;
50321;PMS5003;36227;53.366;-1.426;2023-05-14T10:13:58;36;34;
50321;PMS5003;36227;53.366;-1.426;2023-05-14T10:16:23;39;39;
50321;PMS5003;36227;53.366;-1.426;2023-05-14T10:18:48;35;35;
50321;PMS5003;36227;53.366;-1.426;2023-05-14T10:21:11;35;31;
50321;PMS5003;36227;53.366;-1.426;2023-05-14T10:23:36;35;33;
50321;PMS5003;36227;53.366;-1.426;2023-05-14T10:26:01;31;28;
50321;PMS5003;36227;53.366;-1.426;2023-05-14T10:28:26;34;34;
50321;PMS5003;36227;53.366;-1.426;2023-05-14T10:30:52;40;38;
50321;PMS5003;36227;53.366;-1.426;2023-05-14T10:33:17;35;32;
50321;PMS5003;36227;53.366;-1.426;2023-05-14T10:35:50;34;31;
50321;PMS5003;36227;53.366;-1.426;2023-05-14T10:38:09;32;31;
50321;PMS5003;36227;53.366;-1.426;2023-05-14T10:40:34;29;27;
50321;PMS5003;36227;53.366;-1.426;2023-05-14T10:42:59;22;22;
50321;PMS5003;36227;53.366;-1.426;2023-05-14T10:45:24;17;17;
50321;PMS5003;36227;53.366;-1.426;2023-05-14T10:47:50;17;17;
50321;PMS5003;36227;53.366;-1.426;2023-05-14T10:50:15;13;13;
50321;PMS5003;36227;53.366;-1.426;2023-05-14T10:52:41;19;19;
50321;PMS5003;36227;53.366;-1.426;2023-05-14T10:55:06;22;19;
50321;PMS5003;36227;53.366;-1.426;2023-05-14T10:57:31;22;20;
50321;PMS5003;36227;53.366;-1.426;2023-05-14T10:59:57;26;24;
50321;PMS5003;36227;53.366;-1.426;2023-05-14T11:02:22;37;33;
50321;PMS5003;36227;53.366;-1.426;2023-05-14T11:04:56;27;27;
50321;PMS5003;36227;53.366;-1.426;2023-05-14T11:07:12;29;26;
50321;PMS5003;36227;53.366;-1.426;2023-05-14T11:09:38;35;33;
50321;PMS5003;36227;53.366;-1.426;2023-05-14T11:12:03;38;35;
50321;PMS5003;36227;53.366;-1.426;2023-05-14T11:14:29;37;33;
50321;PMS5003;36227;53.366;-1.426;2023-05-14T11:16:55;40;37;
50321;PMS5003;36227;53.366;-1.426;2023-05-14T11:19:20;32;30;
50321;PMS5003;36227;53.366;-1.426;2023-05-14T11:21:45;34;29;
50321;PMS5003;36227;53.366;-1.426;2023-05-14T11:24:10;28;26;
50321;PMS5003;36227;53.366;-1.426;2023-05-14T11:26:36;23;23;
50321;PMS5003;36227;53.366;-1.426;2023-05-14T11:29:01;22;22;
50321;PMS5003;36227;53.366;-1.426;2023-05-14T11:31:26;30;28;
50321;PMS5003;36227;53.366;-1.426;2023-05-14T11:33:51;29;29;
50321;PMS5003;36227;53.366;-1.426;2023-05-14T11:36:17;43;40;
50321;PMS5003;36227;53.366;-1.426;2023-05-14T11:38:46;27;26;
50321;PMS5003;36227;53.366;-1.426;2023-05-14T11:41:08;32;31;
50321;PMS5003;36227;53.366;-1.426;2023-05-14T11:43:34;30;29;
50321;PMS5003;36227;53.366;-1.426;2023-05-14T11:45:59;32;29;
50321;PMS5003;36227;53.366;-1.426;2023-05-14T11:48:25;32;29;
50321;PMS5003;36227;53.366;-1.426;2023-05-14T11:50:51;25;24;
50321;PMS5003;36227;53.366;-1.426;2023-05-14T11:53:16;29;24;
50321;PMS5003;36227;53.366;-1.426;2023-05-14T11:55:41;21;21;
50321;PMS5003;36227;53.366;-1.426;2023-05-14T11:58:06;16;16;
50321;PMS5003;36227;53.366;-1.426;2023-05-14T12:00:32;14;14;
50321;PMS5003;36227;53.366;-1.426;2023-05-14T12:02:57;14;14;
50321;PMS5003;36227;53.366;-1.426;2023-05-14T12:05:23;14;14;
50321;PMS5003;36227;53.366;-1.426;2023-05-14T12:07:48;13;13;
50321;PMS5003;36227;53.366;-1.426;2023-05-14T12:10:12;11;9;
50321;PMS5003;36227;53.366;-1.426;2023-05-14T12:12:38;8;8;
50321;PMS5003;36227;53.366;-1.426;2023-05-14T12:17:28;4;4;
50321;PMS5003;36227;53.366;-1.426;2023-05-14T12:19:53;2;2;
50321;PMS5003;36227;53.366;-1.426;2023-05-14T12:22:20;8;8;
50321;PMS5003;36227;53.366;-1.426;2023-05-14T12:27:09;4;4;
50321;PMS5003;36227;53.366;-1.426;2023-05-14T12:29:34;2;2;
50321;PMS5003;36227;53.366;-1.426;2023-05-14T12:31:59;5;5;
50321;PMS5003;36227;53.366;-1.426;2023-05-14T12:34:24;2;2;
50321;PMS5003;36227;53.366;-1.426;2023-05-14T12:36:49;5;4;
50321;PMS5003;36227;53.366;-1.426;2023-05-14T12:39:14;2;2;
50321;PMS5003;36227;53.366;-1.426;2023-05-14T12:41:39;4;4;
50321;PMS5003;36227;53.366;-1.426;2023-05-14T12:44:04;5;5;
50321;PMS5003;36227;53.366;-1.426;2023-05-14T12:46:29;6;6;
50321;PMS5003;36227;53.366;-1.426;2023-05-14T12:48:54;6;6;
50321;PMS5003;36227;53.366;-1.426;2023-05-14T12:51:19;10;10;
50321;PMS5003;36227;53.366;-1.426;2023-05-14T12:53:45;9;8;
50321;PMS5003;36227;53.366;-1.426;2023-05-14T12:56:10;7;7;
50321;PMS5003;36227;53.366;-1.426;2023-05-14T12:58:35;7;7;
50321;PMS5003;36227;53.366;-1.426;2023-05-14T13:01:00;7;5;
50321;PMS5003;36227;53.366;-1.426;2023-05-14T13:03:25;8;8;
50321;PMS5003;36227;53.366;-1.426;2023-05-14T13:05:50;9;8;
50321;PMS5003;36227;53.366;-1.426;2023-05-14T13:08:15;7;6;
50321;PMS5003;36227;53.366;-1.426;2023-05-14T13:10:40;4;4;
50321;PMS5003;36227;53.366;-1.426;2023-05-14T13:13:05;7;7;
50321;PMS5003;36227;53.366;-1.426;2023-05-14T13:15:30;4;4;
50321;PMS5003;36227;53.366;-1.426;2023-05-14T13:17:55;7;7;
50321;PMS5003;36227;53.366;-1.426;2023-05-14T13:20:20;8;7;
50321;PMS5003;36227;53.366;-1.426;2023-05-14T13:22:45;9;7;
50321;PMS5003;36227;53.366;-1.426;2023-05-14T13:25:11;6;6;
50321;PMS5003;36227;53.366;-1.426;2023-05-14T13:27:36;7;7;
50321;PMS5003;36227;53.366;-1.426;2023-05-14T13:30:01;6;6;
50321;PMS5003;36227;53.366;-1.426;2023-05-14T13:32:26;6;5;
50321;PMS5003;36227;53.366;-1.426;2023-05-14T13:34:51;5;5;
50321;PMS5003;36227;53.366;-1.426;2023-05-14T13:37:16;5;5;
50321;PMS5003;36227;53.366;-1.426;2023-05-14T13:39:41;6;5;
50321;PMS5003;36227;53.366;-1.426;2023-05-14T13:42:06;6;5;
50321;PMS5003;36227;53.366;-1.426;2023-05-14T13:44:31;4;4;
50321;PMS5003;36227;53.366;-1.426;2023-05-14T13:46:56;5;4;
50321;PMS5003;36227;53.366;-1.426;2023-05-14T13:49:21;6;5;
50321;PMS5003;36227;53.366;-1.426;2023-05-14T13:51:46;5;5;
50321;PMS5003;36227;53.366;-1.426;2023-05-14T13:54:11;7;5;
50321;PMS5003;36227;53.366;-1.426;2023-05-14T13:56:37;13;13;
50321;PMS5003;36227;53.366;-1.426;2023-05-14T13:59:02;6;5;
50321;PMS5003;36227;53.366;-1.426;2023-05-14T14:01:28;6;6;
50321;PMS5003;36227;53.366;-1.426;2023-05-14T14:03:53;7;7;
50321;PMS5003;36227;53.366;-1.426;2023-05-14T14:06:17;6;5;
50321;PMS5003;36227;53.366;-1.426;2023-05-14T14:08:42;6;6;
50321;PMS5003;36227;53.366;-1.426;2023-05-14T14:11:08;5;5;
50321;PMS5003;36227;53.366;-1.426;2023-05-14T14:13:33;5;5;
50321;PMS5003;36227;53.366;-1.426;2023-05-14T14:15:58;4;4;
50321;PMS5003;36227;53.366;-1.426;2023-05-14T14:18:23;5;5;
50321;PMS5003;36227;53.366;-1.426;2023-05-14T14:20:48;4;4;
50321;PMS5003;36227;53.366;-1.426;2023-05-14T14:23:13;4;4;
50321;PMS5003;36227;53.366;-1.426;2023-05-14T14:25:38;4;4;
50321;PMS5003;36227;53.366;-1.426;2023-05-14T14:28:03;4;4;
50321;PMS5003;36227;53.366;-1.426;2023-05-14T14:30:28;6;6;
50321;PMS5003;36227;53.366;-1.426;2023-05-14T14:32:53;7;7;
50321;PMS5003;36227;53.366;-1.426;2023-05-14T14:35:18;8;7;
50321;PMS5003;36227;53.366;-1.426;2023-05-14T14:37:44;7;7;
50321;PMS5003;36227;53.366;-1.426;2023-05-14T14:40:09;5;5;
50321;PMS5003;36227;53.366;-1.426;2023-05-14T14:42:34;7;5;
50321;PMS5003;36227;53.366;-1.426;2023-05-14T14:44:59;7;7;
50321;PMS5003;36227;53.366;-1.426;2023-05-14T14:47:24;12;10;
50321;PMS5003;36227;53.366;-1.426;2023-05-14T14:49:50;6;6;
50321;PMS5003;36227;53.366;-1.426;2023-05-14T14:52:15;5;5;
50321;PMS5003;36227;53.366;-1.426;2023-05-14T14:54:40;5;5;
50321;PMS5003;36227;53.366;-1.426;2023-05-14T14:57:05;7;6;
50321;PMS5003;36227;53.366;-1.426;2023-05-14T14:59:30;4;4;
50321;PMS5003;36227;53.366;-1.426;2023-05-14T15:01:55;6;5;
50321;PMS5003;36227;53.366;-1.426;2023-05-14T15:04:21;7;7;
50321;PMS5003;36227;53.366;-1.426;2023-05-14T15:06:46;8;8;
50321;PMS5003;36227;53.366;-1.426;2023-05-14T15:09:11;8;7;
50321;PMS5003;36227;53.366;-1.426;2023-05-14T15:11:36;7;7;
50321;PMS5003;36227;53.366;-1.426;2023-05-14T15:14:01;8;7;
50321;PMS5003;36227;53.366;-1.426;2023-05-14T15:16:26;4;4;
50321;PMS5003;36227;53.366;-1.426;2023-05-14T15:18:51;3;3;
50321;PMS5003;36227;53.366;-1.426;2023-05-14T15:21:16;6;6;
50321;PMS5003;36227;53.366;-1.426;2023-05-14T15:23:41;7;7;
50321;PMS5003;36227;53.366;-1.426;2023-05-14T15:26:07;10;8;
50321;PMS5003;36227;53.366;-1.426;2023-05-14T15:28:32;12;12;
50321;PMS5003;36227;53.366;-1.426;2023-05-14T15:30:57;10;10;
50321;PMS5003;36227;53.366;-1.426;2023-05-14T15:33:22;8;8;
50321;PMS5003;36227;53.366;-1.426;2023-05-14T15:35:48;9;9;
50321;PMS5003;36227;53.366;-1.426;2023-05-14T15:38:13;12;12;
50321;PMS5003;36227;53.366;-1.426;2023-05-14T15:40:39;7;7;
50321;PMS5003;36227;53.366;-1.426;2023-05-14T15:43:04;13;9;
50321;PMS5003;36227;53.366;-1.426;2023-05-14T15:45:29;11;9;
50321;PMS5003;36227;53.366;-1.426;2023-05-14T15:47:54;12;11;
50321;PMS5003;36227;53.366;-1.426;2023-05-14T15:50:19;9;9;
50321;PMS5003;36227;53.366;-1.426;2023-05-14T15:52:44;6;6;
50321;PMS5003;36227;53.366;-1.426;2023-05-14T15:55:09;6;6;
50321;PMS5003;36227;53.366;-1.426;2023-05-14T15:57:35;10;8;
50321;PMS5003;36227;53.366;-1.426;2023-05-14T16:00:00;6;6;